sensor_id;sensor_type;location;lat;lon;timestamp;P1;durP1;ratioP1;P2;durP2;ratioP2
26710;SDS011;18311;52.754;18.118;2022-08-01T00:02:21;30.77;;;16.02;;
26710;SDS011;18311;52.754;18.118;2022-08-01T00:04:56;46.10;;;21.95;;
26710;SDS011;18311;52.754;18.118;2022-08-01T00:07:27;38.73;;;19.50;;
26710;SDS011;18311;52.754;18.118;2022-08-01T00:10:00;23.00;;;11.75;;
26710;SDS011;18311;52.754;18.118;2022-08-01T00:12:32;13.13;;;7.50;;
26710;SDS011;18311;52.754;18.118;2022-08-01T00:15:06;14.47;;;7.00;;
26710;SDS011;18311;52.754;18.118;2022-08-01T00:17:38;25.35;;;13.08;;
26710;SDS011;18311;52.754;18.118;2022-08-01T00:20:12;54.18;;;27.67;;
26710;SDS011;18311;52.754;18.118;2022-08-01T00:22:43;39.15;;;18.70;;
26710;SDS011;18311;52.754;18.118;2022-08-01T00:25:15;33.92;;;17.62;;
26710;SDS011;18311;52.754;18.118;2022-08-01T00:27:46;32.08;;;15.08;;
26710;SDS011;18311;52.754;18.118;2022-08-01T00:30:18;72.53;;;34.55;;
26710;SDS011;18311;52.754;18.118;2022-08-01T00:32:49;47.65;;;23.83;;
26710;SDS011;18311;52.754;18.118;2022-08-01T00:35:21;20.90;;;11.30;;
26710;SDS011;18311;52.754;18.118;2022-08-01T00:37:52;18.17;;;10.40;;
26710;SDS011;18311;52.754;18.118;2022-08-01T00:40:23;18.92;;;10.55;;
26710;SDS011;18311;52.754;18.118;2022-08-01T00:42:56;20.27;;;11.48;;
26710;SDS011;18311;52.754;18.118;2022-08-01T00:45:28;47.73;;;23.65;;
26710;SDS011;18311;52.754;18.118;2022-08-01T00:48:00;58.42;;;28.80;;
26710;SDS011;18311;52.754;18.118;2022-08-01T00:50:31;41.25;;;21.00;;
26710;SDS011;18311;52.754;18.118;2022-08-01T00:53:03;34.58;;;19.25;;
26710;SDS011;18311;52.754;18.118;2022-08-01T00:55:36;26.80;;;14.47;;
26710;SDS011;18311;52.754;18.118;2022-08-01T00:58:07;15.38;;;8.60;;
26710;SDS011;18311;52.754;18.118;2022-08-01T01:00:40;9.50;;;5.95;;
26710;SDS011;18311;52.754;18.118;2022-08-01T01:03:13;8.98;;;5.40;;
26710;SDS011;18311;52.754;18.118;2022-08-01T01:05:56;6.33;;;4.25;;
26710;SDS011;18311;52.754;18.118;2022-08-01T01:08:27;6.58;;;3.67;;
26710;SDS011;18311;52.754;18.118;2022-08-01T01:11:09;4.03;;;3.05;;
26710;SDS011;18311;52.754;18.118;2022-08-01T01:13:43;3.72;;;2.90;;
26710;SDS011;18311;52.754;18.118;2022-08-01T01:16:17;3.95;;;3.17;;
26710;SDS011;18311;52.754;18.118;2022-08-01T01:18:59;3.83;;;3.10;;
26710;SDS011;18311;52.754;18.118;2022-08-01T01:29:54;3.17;;;2.83;;
26710;SDS011;18311;52.754;18.118;2022-08-01T01:37:51;3.20;;;2.90;;
26710;SDS011;18311;52.754;18.118;2022-08-01T01:40:35;5.22;;;3.60;;
26710;SDS011;18311;52.754;18.118;2022-08-01T01:43:09;8.95;;;3.90;;
26710;SDS011;18311;52.754;18.118;2022-08-01T01:45:43;5.50;;;4.10;;
26710;SDS011;18311;52.754;18.118;2022-08-01T01:48:17;8.93;;;4.00;;
26710;SDS011;18311;52.754;18.118;2022-08-01T01:50:51;6.67;;;4.47;;
26710;SDS011;18311;52.754;18.118;2022-08-01T01:53:23;7.00;;;5.45;;
26710;SDS011;18311;52.754;18.118;2022-08-01T01:55:56;10.05;;;5.20;;
26710;SDS011;18311;52.754;18.118;2022-08-01T01:58:29;11.75;;;6.35;;
26710;SDS011;18311;52.754;18.118;2022-08-01T02:01:02;6.15;;;4.40;;
26710;SDS011;18311;52.754;18.118;2022-08-01T02:03:38;4.90;;;3.50;;
26710;SDS011;18311;52.754;18.118;2022-08-01T02:06:12;3.62;;;3.33;;
26710;SDS011;18311;52.754;18.118;2022-08-01T02:08:46;6.45;;;3.10;;
26710;SDS011;18311;52.754;18.118;2022-08-01T02:11:21;5.00;;;2.95;;
26710;SDS011;18311;52.754;18.118;2022-08-01T02:13:59;4.53;;;2.90;;
26710;SDS011;18311;52.754;18.118;2022-08-01T02:16:33;3.33;;;2.80;;
26710;SDS011;18311;52.754;18.118;2022-08-01T02:19:07;3.47;;;2.92;;
26710;SDS011;18311;52.754;18.118;2022-08-01T02:21:40;3.67;;;2.90;;
26710;SDS011;18311;52.754;18.118;2022-08-01T02:24:23;3.90;;;2.60;;
26710;SDS011;18311;52.754;18.118;2022-08-01T02:27:00;3.77;;;2.70;;
26710;SDS011;18311;52.754;18.118;2022-08-01T02:29:33;6.40;;;2.90;;
26710;SDS011;18311;52.754;18.118;2022-08-01T02:32:14;4.83;;;3.00;;
26710;SDS011;18311;52.754;18.118;2022-08-01T02:34:43;5.25;;;3.17;;
26710;SDS011;18311;52.754;18.118;2022-08-01T02:37:18;4.67;;;3.00;;
26710;SDS011;18311;52.754;18.118;2022-08-01T02:39:51;5.12;;;2.70;;
26710;SDS011;18311;52.754;18.118;2022-08-01T02:42:24;4.78;;;2.95;;
26710;SDS011;18311;52.754;18.118;2022-08-01T02:44:57;5.60;;;2.60;;
26710;SDS011;18311;52.754;18.118;2022-08-01T02:47:29;3.47;;;3.17;;
26710;SDS011;18311;52.754;18.118;2022-08-01T02:50:02;3.37;;;3.08;;
26710;SDS011;18311;52.754;18.118;2022-08-01T02:52:34;5.90;;;3.00;;
26710;SDS011;18311;52.754;18.118;2022-08-01T02:55:07;3.45;;;3.00;;
26710;SDS011;18311;52.754;18.118;2022-08-01T02:57:42;4.03;;;3.05;;
26710;SDS011;18311;52.754;18.118;2022-08-01T03:00:17;4.35;;;3.20;;
26710;SDS011;18311;52.754;18.118;2022-08-01T03:02:51;4.62;;;3.50;;
26710;SDS011;18311;52.754;18.118;2022-08-01T03:07:57;4.17;;;3.55;;
26710;SDS011;18311;52.754;18.118;2022-08-01T03:10:31;4.90;;;3.10;;
26710;SDS011;18311;52.754;18.118;2022-08-01T03:13:06;3.90;;;3.40;;
26710;SDS011;18311;52.754;18.118;2022-08-01T03:15:39;3.62;;;3.10;;
26710;SDS011;18311;52.754;18.118;2022-08-01T03:18:13;4.00;;;3.00;;
26710;SDS011;18311;52.754;18.118;2022-08-01T03:20:45;3.70;;;3.15;;
26710;SDS011;18311;52.754;18.118;2022-08-01T03:23:17;4.00;;;3.60;;
26710;SDS011;18311;52.754;18.118;2022-08-01T03:25:54;3.92;;;3.02;;
26710;SDS011;18311;52.754;18.118;2022-08-01T03:28:26;4.67;;;3.10;;
26710;SDS011;18311;52.754;18.118;2022-08-01T03:30:59;3.42;;;3.12;;
26710;SDS011;18311;52.754;18.118;2022-08-01T03:33:32;7.58;;;3.80;;
26710;SDS011;18311;52.754;18.118;2022-08-01T03:36:03;5.90;;;3.40;;
26710;SDS011;18311;52.754;18.118;2022-08-01T03:38:37;4.17;;;3.58;;
26710;SDS011;18311;52.754;18.118;2022-08-01T03:41:15;5.92;;;3.80;;
26710;SDS011;18311;52.754;18.118;2022-08-01T03:44:33;4.50;;;3.35;;
26710;SDS011;18311;52.754;18.118;2022-08-01T03:46:33;3.42;;;3.02;;
26710;SDS011;18311;52.754;18.118;2022-08-01T03:49:19;4.33;;;3.55;;
26710;SDS011;18311;52.754;18.118;2022-08-01T03:54:25;4.92;;;3.40;;
26710;SDS011;18311;52.754;18.118;2022-08-01T03:56:58;6.33;;;3.52;;
26710;SDS011;18311;52.754;18.118;2022-08-01T03:59:31;6.70;;;3.95;;
26710;SDS011;18311;52.754;18.118;2022-08-01T04:02:06;8.10;;;3.75;;
26710;SDS011;18311;52.754;18.118;2022-08-01T04:04:38;4.05;;;3.65;;
26710;SDS011;18311;52.754;18.118;2022-08-01T04:10:00;4.37;;;3.67;;
26710;SDS011;18311;52.754;18.118;2022-08-01T04:12:31;4.33;;;3.87;;
26710;SDS011;18311;52.754;18.118;2022-08-01T04:15:04;4.83;;;4.12;;
26710;SDS011;18311;52.754;18.118;2022-08-01T04:17:37;4.45;;;4.03;;
26710;SDS011;18311;52.754;18.118;2022-08-01T04:20:11;7.05;;;4.10;;
26710;SDS011;18311;52.754;18.118;2022-08-01T04:22:44;4.65;;;3.47;;
26710;SDS011;18311;52.754;18.118;2022-08-01T04:25:21;6.00;;;4.08;;
26710;SDS011;18311;52.754;18.118;2022-08-01T04:27:58;6.55;;;4.00;;
26710;SDS011;18311;52.754;18.118;2022-08-01T04:30:36;5.15;;;3.83;;
26710;SDS011;18311;52.754;18.118;2022-08-01T04:33:11;6.03;;;4.12;;
26710;SDS011;18311;52.754;18.118;2022-08-01T04:35:45;4.40;;;4.00;;
26710;SDS011;18311;52.754;18.118;2022-08-01T04:38:21;4.72;;;3.60;;
26710;SDS011;18311;52.754;18.118;2022-08-01T04:40:56;5.65;;;3.90;;
26710;SDS011;18311;52.754;18.118;2022-08-01T04:43:29;5.45;;;3.85;;
26710;SDS011;18311;52.754;18.118;2022-08-01T04:46:01;6.42;;;4.55;;
26710;SDS011;18311;52.754;18.118;2022-08-01T04:48:34;6.47;;;4.80;;
26710;SDS011;18311;52.754;18.118;2022-08-01T04:51:15;6.92;;;5.08;;
26710;SDS011;18311;52.754;18.118;2022-08-01T04:53:49;6.85;;;5.45;;
26710;SDS011;18311;52.754;18.118;2022-08-01T04:56:22;5.60;;;4.92;;
26710;SDS011;18311;52.754;18.118;2022-08-01T04:58:53;5.42;;;4.87;;
26710;SDS011;18311;52.754;18.118;2022-08-01T05:01:47;6.05;;;5.40;;
26710;SDS011;18311;52.754;18.118;2022-08-01T05:04:20;6.95;;;6.25;;
26710;SDS011;18311;52.754;18.118;2022-08-01T05:06:52;8.20;;;6.10;;
26710;SDS011;18311;52.754;18.118;2022-08-01T05:09:23;6.65;;;5.95;;
26710;SDS011;18311;52.754;18.118;2022-08-01T05:12:02;8.18;;;6.58;;
26710;SDS011;18311;52.754;18.118;2022-08-01T05:14:31;7.45;;;6.67;;
26710;SDS011;18311;52.754;18.118;2022-08-01T05:17:03;7.22;;;6.45;;
26710;SDS011;18311;52.754;18.118;2022-08-01T05:19:36;7.72;;;6.75;;
26710;SDS011;18311;52.754;18.118;2022-08-01T05:22:08;10.70;;;7.22;;
26710;SDS011;18311;52.754;18.118;2022-08-01T05:24:40;8.08;;;7.17;;
26710;SDS011;18311;52.754;18.118;2022-08-01T05:27:15;7.95;;;7.08;;
26710;SDS011;18311;52.754;18.118;2022-08-01T05:29:48;8.23;;;7.05;;
26710;SDS011;18311;52.754;18.118;2022-08-01T05:32:19;8.20;;;7.37;;
26710;SDS011;18311;52.754;18.118;2022-08-01T05:34:51;8.73;;;7.45;;
26710;SDS011;18311;52.754;18.118;2022-08-01T05:37:22;7.85;;;7.05;;
26710;SDS011;18311;52.754;18.118;2022-08-01T05:39:53;8.78;;;7.10;;
26710;SDS011;18311;52.754;18.118;2022-08-01T05:42:25;7.95;;;7.15;;
26710;SDS011;18311;52.754;18.118;2022-08-01T05:44:57;9.28;;;7.53;;
26710;SDS011;18311;52.754;18.118;2022-08-01T05:47:28;7.42;;;6.70;;
26710;SDS011;18311;52.754;18.118;2022-08-01T05:50:00;8.33;;;6.60;;
26710;SDS011;18311;52.754;18.118;2022-08-01T05:52:31;7.08;;;6.35;;
26710;SDS011;18311;52.754;18.118;2022-08-01T05:55:03;6.85;;;6.12;;
26710;SDS011;18311;52.754;18.118;2022-08-01T05:57:35;6.70;;;5.72;;
26710;SDS011;18311;52.754;18.118;2022-08-01T06:00:09;7.53;;;6.10;;
26710;SDS011;18311;52.754;18.118;2022-08-01T06:02:42;7.55;;;6.15;;
26710;SDS011;18311;52.754;18.118;2022-08-01T06:05:13;7.33;;;6.08;;
26710;SDS011;18311;52.754;18.118;2022-08-01T06:07:46;7.17;;;6.15;;
26710;SDS011;18311;52.754;18.118;2022-08-01T06:10:19;7.00;;;6.00;;
26710;SDS011;18311;52.754;18.118;2022-08-01T06:12:50;7.67;;;6.17;;
26710;SDS011;18311;52.754;18.118;2022-08-01T06:15:21;8.18;;;6.47;;
26710;SDS011;18311;52.754;18.118;2022-08-01T06:17:55;7.72;;;5.70;;
26710;SDS011;18311;52.754;18.118;2022-08-01T06:20:26;6.67;;;5.60;;
26710;SDS011;18311;52.754;18.118;2022-08-01T06:22:57;8.85;;;5.92;;
26710;SDS011;18311;52.754;18.118;2022-08-01T06:25:31;8.78;;;5.83;;
26710;SDS011;18311;52.754;18.118;2022-08-01T06:28:02;6.87;;;6.17;;
26710;SDS011;18311;52.754;18.118;2022-08-01T06:30:34;8.13;;;6.08;;
26710;SDS011;18311;52.754;18.118;2022-08-01T06:33:07;7.00;;;5.80;;
26710;SDS011;18311;52.754;18.118;2022-08-01T06:35:39;7.58;;;6.15;;
26710;SDS011;18311;52.754;18.118;2022-08-01T06:38:10;6.35;;;5.75;;
26710;SDS011;18311;52.754;18.118;2022-08-01T06:40:42;7.70;;;6.37;;
26710;SDS011;18311;52.754;18.118;2022-08-01T06:43:15;7.10;;;5.90;;
26710;SDS011;18311;52.754;18.118;2022-08-01T06:45:47;7.28;;;5.95;;
26710;SDS011;18311;52.754;18.118;2022-08-01T06:48:19;7.87;;;6.15;;
26710;SDS011;18311;52.754;18.118;2022-08-01T06:50:51;7.40;;;5.60;;
26710;SDS011;18311;52.754;18.118;2022-08-01T06:53:24;8.98;;;5.90;;
26710;SDS011;18311;52.754;18.118;2022-08-01T06:55:56;5.87;;;5.22;;
26710;SDS011;18311;52.754;18.118;2022-08-01T06:58:29;7.12;;;5.85;;
26710;SDS011;18311;52.754;18.118;2022-08-01T07:01:00;7.72;;;6.08;;
26710;SDS011;18311;52.754;18.118;2022-08-01T07:03:35;7.83;;;5.90;;
26710;SDS011;18311;52.754;18.118;2022-08-01T07:06:08;6.28;;;5.67;;
26710;SDS011;18311;52.754;18.118;2022-08-01T07:08:42;6.25;;;5.30;;
26710;SDS011;18311;52.754;18.118;2022-08-01T07:11:14;8.33;;;5.37;;
26710;SDS011;18311;52.754;18.118;2022-08-01T07:13:46;6.08;;;5.03;;
26710;SDS011;18311;52.754;18.118;2022-08-01T07:16:18;5.35;;;4.35;;
26710;SDS011;18311;52.754;18.118;2022-08-01T07:18:49;4.83;;;4.03;;
26710;SDS011;18311;52.754;18.118;2022-08-01T07:21:20;5.55;;;4.12;;
26710;SDS011;18311;52.754;18.118;2022-08-01T07:23:53;4.65;;;4.05;;
26710;SDS011;18311;52.754;18.118;2022-08-01T07:26:25;6.30;;;4.60;;
26710;SDS011;18311;52.754;18.118;2022-08-01T07:28:56;6.12;;;4.42;;
26710;SDS011;18311;52.754;18.118;2022-08-01T07:31:28;5.42;;;4.10;;
26710;SDS011;18311;52.754;18.118;2022-08-01T07:34:00;5.05;;;3.87;;
26710;SDS011;18311;52.754;18.118;2022-08-01T07:36:31;5.08;;;3.58;;
26710;SDS011;18311;52.754;18.118;2022-08-01T07:39:03;4.85;;;4.05;;
26710;SDS011;18311;52.754;18.118;2022-08-01T07:41:34;4.05;;;3.58;;
26710;SDS011;18311;52.754;18.118;2022-08-01T07:44:09;4.87;;;3.90;;
26710;SDS011;18311;52.754;18.118;2022-08-01T07:46:42;5.45;;;3.98;;
26710;SDS011;18311;52.754;18.118;2022-08-01T07:49:13;5.85;;;3.95;;
26710;SDS011;18311;52.754;18.118;2022-08-01T07:51:45;6.15;;;4.37;;
26710;SDS011;18311;52.754;18.118;2022-08-01T07:54:19;5.28;;;4.50;;
26710;SDS011;18311;52.754;18.118;2022-08-01T07:56:54;5.47;;;4.90;;
26710;SDS011;18311;52.754;18.118;2022-08-01T07:59:26;7.03;;;4.80;;
26710;SDS011;18311;52.754;18.118;2022-08-01T08:01:57;6.37;;;4.80;;
26710;SDS011;18311;52.754;18.118;2022-08-01T08:04:29;6.75;;;5.67;;
26710;SDS011;18311;52.754;18.118;2022-08-01T08:07:01;7.47;;;4.87;;
26710;SDS011;18311;52.754;18.118;2022-08-01T08:09:33;6.37;;;4.80;;
26710;SDS011;18311;52.754;18.118;2022-08-01T08:12:05;5.85;;;4.65;;
26710;SDS011;18311;52.754;18.118;2022-08-01T08:14:37;6.67;;;4.83;;
26710;SDS011;18311;52.754;18.118;2022-08-01T08:17:09;5.87;;;4.92;;
26710;SDS011;18311;52.754;18.118;2022-08-01T08:19:40;7.00;;;4.58;;
26710;SDS011;18311;52.754;18.118;2022-08-01T08:22:11;5.50;;;4.40;;
26710;SDS011;18311;52.754;18.118;2022-08-01T08:24:44;6.37;;;4.58;;
26710;SDS011;18311;52.754;18.118;2022-08-01T08:27:16;7.20;;;4.83;;
26710;SDS011;18311;52.754;18.118;2022-08-01T08:29:47;5.85;;;4.45;;
26710;SDS011;18311;52.754;18.118;2022-08-01T08:32:18;5.05;;;4.40;;
26710;SDS011;18311;52.754;18.118;2022-08-01T08:34:50;5.95;;;4.60;;
26710;SDS011;18311;52.754;18.118;2022-08-01T08:37:22;5.83;;;4.50;;
26710;SDS011;18311;52.754;18.118;2022-08-01T08:39:55;5.10;;;4.60;;
26710;SDS011;18311;52.754;18.118;2022-08-01T08:42:26;4.95;;;4.45;;
26710;SDS011;18311;52.754;18.118;2022-08-01T08:44:58;7.17;;;4.65;;
26710;SDS011;18311;52.754;18.118;2022-08-01T08:47:31;4.85;;;4.20;;
26710;SDS011;18311;52.754;18.118;2022-08-01T08:50:05;9.30;;;4.72;;
26710;SDS011;18311;52.754;18.118;2022-08-01T08:52:37;6.53;;;5.10;;
26710;SDS011;18311;52.754;18.118;2022-08-01T08:55:12;7.50;;;5.22;;
26710;SDS011;18311;52.754;18.118;2022-08-01T08:57:43;5.15;;;4.62;;
26710;SDS011;18311;52.754;18.118;2022-08-01T09:00:15;5.33;;;4.40;;
26710;SDS011;18311;52.754;18.118;2022-08-01T09:02:48;5.92;;;4.97;;
26710;SDS011;18311;52.754;18.118;2022-08-01T09:05:23;7.78;;;4.78;;
26710;SDS011;18311;52.754;18.118;2022-08-01T09:08:01;5.30;;;4.47;;
26710;SDS011;18311;52.754;18.118;2022-08-01T09:10:35;5.17;;;4.58;;
26710;SDS011;18311;52.754;18.118;2022-08-01T09:13:10;6.60;;;4.60;;
26710;SDS011;18311;52.754;18.118;2022-08-01T09:15:48;7.30;;;4.60;;
26710;SDS011;18311;52.754;18.118;2022-08-01T09:18:27;6.25;;;5.00;;
26710;SDS011;18311;52.754;18.118;2022-08-01T09:21:17;6.50;;;4.95;;
26710;SDS011;18311;52.754;18.118;2022-08-01T09:23:51;6.35;;;5.33;;
26710;SDS011;18311;52.754;18.118;2022-08-01T09:26:29;8.23;;;5.83;;
26710;SDS011;18311;52.754;18.118;2022-08-01T09:29:03;7.00;;;5.33;;
26710;SDS011;18311;52.754;18.118;2022-08-01T09:31:41;6.33;;;4.85;;
26710;SDS011;18311;52.754;18.118;2022-08-01T09:34:16;6.30;;;5.55;;
26710;SDS011;18311;52.754;18.118;2022-08-01T09:36:52;6.75;;;5.30;;
26710;SDS011;18311;52.754;18.118;2022-08-01T09:44:56;6.00;;;5.37;;
26710;SDS011;18311;52.754;18.118;2022-08-01T09:47:41;6.28;;;5.67;;
26710;SDS011;18311;52.754;18.118;2022-08-01T09:50:12;6.20;;;5.37;;
26710;SDS011;18311;52.754;18.118;2022-08-01T09:52:48;6.50;;;5.80;;
26710;SDS011;18311;52.754;18.118;2022-08-01T09:55:20;6.78;;;6.12;;
26710;SDS011;18311;52.754;18.118;2022-08-01T09:57:55;7.08;;;5.58;;
26710;SDS011;18311;52.754;18.118;2022-08-01T10:00:28;7.47;;;5.85;;
26710;SDS011;18311;52.754;18.118;2022-08-01T10:03:18;9.48;;;6.10;;
26710;SDS011;18311;52.754;18.118;2022-08-01T10:05:54;7.08;;;5.67;;
26710;SDS011;18311;52.754;18.118;2022-08-01T10:08:27;6.80;;;5.45;;
26710;SDS011;18311;52.754;18.118;2022-08-01T10:11:09;8.58;;;5.90;;
26710;SDS011;18311;52.754;18.118;2022-08-01T10:13:44;6.25;;;5.17;;
26710;SDS011;18311;52.754;18.118;2022-08-01T10:16:16;7.20;;;5.30;;
26710;SDS011;18311;52.754;18.118;2022-08-01T10:18:48;6.33;;;5.65;;
26710;SDS011;18311;52.754;18.118;2022-08-01T10:21:20;7.62;;;5.95;;
26710;SDS011;18311;52.754;18.118;2022-08-01T10:23:56;6.33;;;5.72;;
26710;SDS011;18311;52.754;18.118;2022-08-01T10:26:32;6.28;;;5.67;;
26710;SDS011;18311;52.754;18.118;2022-08-01T10:31:39;6.20;;;5.60;;
26710;SDS011;18311;52.754;18.118;2022-08-01T10:34:13;8.17;;;6.40;;
26710;SDS011;18311;52.754;18.118;2022-08-01T10:36:51;6.58;;;5.97;;
26710;SDS011;18311;52.754;18.118;2022-08-01T10:39:24;6.53;;;5.92;;
26710;SDS011;18311;52.754;18.118;2022-08-01T10:41:59;8.93;;;5.87;;
26710;SDS011;18311;52.754;18.118;2022-08-01T10:44:33;6.03;;;5.42;;
26710;SDS011;18311;52.754;18.118;2022-08-01T10:47:08;7.70;;;6.12;;
26710;SDS011;18311;52.754;18.118;2022-08-01T10:50:02;6.55;;;5.95;;
26710;SDS011;18311;52.754;18.118;2022-08-01T10:58:41;7.50;;;5.70;;
26710;SDS011;18311;52.754;18.118;2022-08-01T11:01:18;7.47;;;6.60;;
26710;SDS011;18311;52.754;18.118;2022-08-01T11:04:03;6.87;;;6.28;;
26710;SDS011;18311;52.754;18.118;2022-08-01T11:06:42;6.10;;;5.50;;
26710;SDS011;18311;52.754;18.118;2022-08-01T11:17:35;6.78;;;6.15;;
26710;SDS011;18311;52.754;18.118;2022-08-01T11:20:17;7.00;;;6.30;;
26710;SDS011;18311;52.754;18.118;2022-08-01T11:28:17;7.17;;;6.47;;
26710;SDS011;18311;52.754;18.118;2022-08-01T11:36:21;7.45;;;6.08;;
26710;SDS011;18311;52.754;18.118;2022-08-01T11:41:33;6.37;;;5.37;;
26710;SDS011;18311;52.754;18.118;2022-08-01T11:44:10;5.75;;;5.20;;
26710;SDS011;18311;52.754;18.118;2022-08-01T11:49:48;7.12;;;6.40;;
26710;SDS011;18311;52.754;18.118;2022-08-01T11:52:26;6.58;;;6.00;;
26710;SDS011;18311;52.754;18.118;2022-08-01T11:57:37;6.47;;;5.85;;
26710;SDS011;18311;52.754;18.118;2022-08-01T12:00:21;6.15;;;5.55;;
26710;SDS011;18311;52.754;18.118;2022-08-01T12:02:59;6.08;;;5.55;;
26710;SDS011;18311;52.754;18.118;2022-08-01T12:05:33;6.42;;;5.85;;
26710;SDS011;18311;52.754;18.118;2022-08-01T12:08:08;6.33;;;5.72;;
26710;SDS011;18311;52.754;18.118;2022-08-01T12:10:41;6.33;;;5.83;;
26710;SDS011;18311;52.754;18.118;2022-08-01T12:13:15;6.78;;;5.55;;
26710;SDS011;18311;52.754;18.118;2022-08-01T12:15:50;7.92;;;6.37;;
26710;SDS011;18311;52.754;18.118;2022-08-01T12:18:24;6.65;;;5.95;;
26710;SDS011;18311;52.754;18.118;2022-08-01T12:20:59;5.90;;;5.30;;
26710;SDS011;18311;52.754;18.118;2022-08-01T12:23:30;7.25;;;6.08;;
26710;SDS011;18311;52.754;18.118;2022-08-01T12:26:01;7.08;;;5.85;;
26710;SDS011;18311;52.754;18.118;2022-08-01T12:28:38;6.50;;;5.90;;
26710;SDS011;18311;52.754;18.118;2022-08-01T12:31:13;6.40;;;5.80;;
26710;SDS011;18311;52.754;18.118;2022-08-01T12:33:44;6.50;;;5.70;;
26710;SDS011;18311;52.754;18.118;2022-08-01T12:36:26;5.95;;;5.33;;
26710;SDS011;18311;52.754;18.118;2022-08-01T12:38:54;6.33;;;5.72;;
26710;SDS011;18311;52.754;18.118;2022-08-01T12:41:27;6.15;;;5.40;;
26710;SDS011;18311;52.754;18.118;2022-08-01T12:43:59;5.22;;;4.60;;
26710;SDS011;18311;52.754;18.118;2022-08-01T12:46:30;5.22;;;4.10;;
26710;SDS011;18311;52.754;18.118;2022-08-01T12:49:02;5.37;;;4.08;;
26710;SDS011;18311;52.754;18.118;2022-08-01T12:51:33;4.97;;;4.47;;
26710;SDS011;18311;52.754;18.118;2022-08-01T12:54:05;6.75;;;4.60;;
26710;SDS011;18311;52.754;18.118;2022-08-01T12:56:39;6.72;;;4.62;;
26710;SDS011;18311;52.754;18.118;2022-08-01T12:59:25;7.05;;;4.35;;
26710;SDS011;18311;52.754;18.118;2022-08-01T13:02:07;5.17;;;4.47;;
26710;SDS011;18311;52.754;18.118;2022-08-01T13:04:32;4.72;;;3.83;;
26710;SDS011;18311;52.754;18.118;2022-08-01T13:07:05;6.28;;;4.15;;
26710;SDS011;18311;52.754;18.118;2022-08-01T13:09:36;4.37;;;3.98;;
26710;SDS011;18311;52.754;18.118;2022-08-01T13:12:09;4.28;;;3.83;;
26710;SDS011;18311;52.754;18.118;2022-08-01T13:14:41;5.22;;;3.55;;
26710;SDS011;18311;52.754;18.118;2022-08-01T13:17:28;3.92;;;3.58;;
26710;SDS011;18311;52.754;18.118;2022-08-01T13:19:46;6.33;;;3.80;;
26710;SDS011;18311;52.754;18.118;2022-08-01T13:22:18;5.15;;;4.17;;
26710;SDS011;18311;52.754;18.118;2022-08-01T13:24:49;5.70;;;4.35;;
26710;SDS011;18311;52.754;18.118;2022-08-01T13:27:21;5.10;;;3.80;;
26710;SDS011;18311;52.754;18.118;2022-08-01T13:29:54;4.47;;;4.08;;
26710;SDS011;18311;52.754;18.118;2022-08-01T13:32:30;5.10;;;4.33;;
26710;SDS011;18311;52.754;18.118;2022-08-01T13:35:06;4.20;;;3.80;;
26710;SDS011;18311;52.754;18.118;2022-08-01T13:37:36;4.25;;;3.85;;
26710;SDS011;18311;52.754;18.118;2022-08-01T13:40:08;6.55;;;4.12;;
26710;SDS011;18311;52.754;18.118;2022-08-01T13:42:40;3.83;;;3.52;;
26710;SDS011;18311;52.754;18.118;2022-08-01T13:45:12;4.12;;;3.70;;
26710;SDS011;18311;52.754;18.118;2022-08-01T13:47:46;4.20;;;3.83;;
26710;SDS011;18311;52.754;18.118;2022-08-01T13:50:20;3.90;;;3.60;;
26710;SDS011;18311;52.754;18.118;2022-08-01T13:52:51;5.67;;;3.67;;
26710;SDS011;18311;52.754;18.118;2022-08-01T13:55:23;5.12;;;4.03;;
26710;SDS011;18311;52.754;18.118;2022-08-01T13:57:58;5.17;;;3.90;;
26710;SDS011;18311;52.754;18.118;2022-08-01T14:00:30;4.47;;;3.60;;
26710;SDS011;18311;52.754;18.118;2022-08-01T14:03:01;4.08;;;3.72;;
26710;SDS011;18311;52.754;18.118;2022-08-01T14:05:33;4.42;;;3.60;;
26710;SDS011;18311;52.754;18.118;2022-08-01T14:08:05;3.98;;;3.58;;
26710;SDS011;18311;52.754;18.118;2022-08-01T14:10:38;3.72;;;3.27;;
26710;SDS011;18311;52.754;18.118;2022-08-01T14:13:11;3.83;;;3.08;;
26710;SDS011;18311;52.754;18.118;2022-08-01T14:15:43;4.20;;;3.10;;
26710;SDS011;18311;52.754;18.118;2022-08-01T14:18:14;3.65;;;3.22;;
26710;SDS011;18311;52.754;18.118;2022-08-01T14:20:46;4.28;;;3.58;;
26710;SDS011;18311;52.754;18.118;2022-08-01T14:23:19;4.85;;;3.00;;
26710;SDS011;18311;52.754;18.118;2022-08-01T14:25:51;4.10;;;2.65;;
26710;SDS011;18311;52.754;18.118;2022-08-01T14:28:25;3.00;;;2.62;;
26710;SDS011;18311;52.754;18.118;2022-08-01T14:30:57;2.62;;;2.42;;
26710;SDS011;18311;52.754;18.118;2022-08-01T14:33:29;3.12;;;2.83;;
26710;SDS011;18311;52.754;18.118;2022-08-01T14:36:02;3.58;;;2.50;;
26710;SDS011;18311;52.754;18.118;2022-08-01T14:38:35;2.45;;;2.20;;
26710;SDS011;18311;52.754;18.118;2022-08-01T14:41:07;2.50;;;2.30;;
26710;SDS011;18311;52.754;18.118;2022-08-01T14:43:39;4.15;;;2.30;;
26710;SDS011;18311;52.754;18.118;2022-08-01T14:46:10;2.35;;;2.15;;
26710;SDS011;18311;52.754;18.118;2022-08-01T14:48:42;2.27;;;1.90;;
26710;SDS011;18311;52.754;18.118;2022-08-01T14:51:14;3.50;;;2.00;;
26710;SDS011;18311;52.754;18.118;2022-08-01T14:53:45;3.85;;;2.30;;
26710;SDS011;18311;52.754;18.118;2022-08-01T14:56:18;3.77;;;2.00;;
26710;SDS011;18311;52.754;18.118;2022-08-01T14:58:50;2.30;;;2.10;;
26710;SDS011;18311;52.754;18.118;2022-08-01T15:01:21;3.00;;;2.10;;
26710;SDS011;18311;52.754;18.118;2022-08-01T15:03:53;3.22;;;1.90;;
26710;SDS011;18311;52.754;18.118;2022-08-01T15:06:25;3.92;;;2.20;;
26710;SDS011;18311;52.754;18.118;2022-08-01T15:08:59;2.95;;;2.17;;
26710;SDS011;18311;52.754;18.118;2022-08-01T15:11:31;3.47;;;2.12;;
26710;SDS011;18311;52.754;18.118;2022-08-01T15:14:03;3.05;;;2.00;;
26710;SDS011;18311;52.754;18.118;2022-08-01T15:16:53;4.05;;;2.00;;
26710;SDS011;18311;52.754;18.118;2022-08-01T15:19:24;2.12;;;1.92;;
26710;SDS011;18311;52.754;18.118;2022-08-01T15:21:56;2.30;;;2.10;;
26710;SDS011;18311;52.754;18.118;2022-08-01T15:24:30;4.12;;;2.15;;
26710;SDS011;18311;52.754;18.118;2022-08-01T15:27:02;3.52;;;2.15;;
26710;SDS011;18311;52.754;18.118;2022-08-01T15:29:34;2.83;;;2.20;;
26710;SDS011;18311;52.754;18.118;2022-08-01T15:32:06;4.03;;;2.40;;
26710;SDS011;18311;52.754;18.118;2022-08-01T15:34:39;3.15;;;2.60;;
26710;SDS011;18311;52.754;18.118;2022-08-01T15:37:10;4.30;;;3.45;;
26710;SDS011;18311;52.754;18.118;2022-08-01T15:39:44;4.25;;;3.20;;
26710;SDS011;18311;52.754;18.118;2022-08-01T15:42:16;4.42;;;3.30;;
26710;SDS011;18311;52.754;18.118;2022-08-01T15:44:50;5.08;;;3.30;;
26710;SDS011;18311;52.754;18.118;2022-08-01T15:47:21;4.05;;;3.22;;
26710;SDS011;18311;52.754;18.118;2022-08-01T15:49:53;4.65;;;3.10;;
26710;SDS011;18311;52.754;18.118;2022-08-01T15:52:26;3.47;;;3.05;;
26710;SDS011;18311;52.754;18.118;2022-08-01T15:54:59;4.87;;;3.25;;
26710;SDS011;18311;52.754;18.118;2022-08-01T15:57:30;4.62;;;3.20;;
26710;SDS011;18311;52.754;18.118;2022-08-01T16:00:02;5.35;;;3.35;;
26710;SDS011;18311;52.754;18.118;2022-08-01T16:02:34;4.28;;;2.70;;
26710;SDS011;18311;52.754;18.118;2022-08-01T16:05:06;3.75;;;3.08;;
26710;SDS011;18311;52.754;18.118;2022-08-01T16:07:39;4.67;;;3.55;;
26710;SDS011;18311;52.754;18.118;2022-08-01T16:10:14;6.45;;;4.47;;
26710;SDS011;18311;52.754;18.118;2022-08-01T16:12:45;5.45;;;3.60;;
26710;SDS011;18311;52.754;18.118;2022-08-01T16:15:17;4.95;;;3.30;;